sensor_id;sensor_type;location;lat;lon;timestamp;temperature;humidity
7684;DHT22;3884;48.616;12.872;2023-04-10T00:00:18;3.70;75.20
7684;DHT22;3884;48.616;12.872;2023-04-10T00:02:46;3.60;99.90
7684;DHT22;3884;48.616;12.872;2023-04-10T00:05:13;3.60;99.90
7684;DHT22;3884;48.616;12.872;2023-04-10T00:07:40;3.60;99.90
7684;DHT22;3884;48.616;12.872;2023-04-10T00:10:08;3.70;1.00
7684;DHT22;3884;48.616;12.872;2023-04-10T00:12:35;3.70;1.00
7684;DHT22;3884;48.616;12.872;2023-04-10T00:15:03;3.60;99.90
7684;DHT22;3884;48.616;12.872;2023-04-10T00:17:30;3.70;99.90
7684;DHT22;3884;48.616;12.872;2023-04-10T00:19:58;3.60;99.90
7684;DHT22;3884;48.616;12.872;2023-04-10T00:22:25;3.60;1.00
7684;DHT22;3884;48.616;12.872;2023-04-10T00:24:52;3.60;99.90
7684;DHT22;3884;48.616;12.872;2023-04-10T00:27:20;3.50;1.00
7684;DHT22;3884;48.616;12.872;2023-04-10T00:29:47;3.50;1.00
7684;DHT22;3884;48.616;12.872;2023-04-10T00:32:13;3.50;1.00
7684;DHT22;3884;48.616;12.872;2023-04-10T00:34:40;3.50;1.00
7684;DHT22;3884;48.616;12.872;2023-04-10T00:37:08;3.40;1.00
7684;DHT22;3884;48.616;12.872;2023-04-10T00:39:36;3.30;1.00
7684;DHT22;3884;48.616;12.872;2023-04-10T00:42:03;3.30;1.00
7684;DHT22;3884;48.616;12.872;2023-04-10T00:44:33;3.20;13.20
7684;DHT22;3884;48.616;12.872;2023-04-10T00:47:02;3.00;1.00
7684;DHT22;3884;48.616;12.872;2023-04-10T00:49:29;3.00;99.90
7684;DHT22;3884;48.616;12.872;2023-04-10T00:51:56;3.00;99.90
7684;DHT22;3884;48.616;12.872;2023-04-10T00:54:25;2.90;1.00
7684;DHT22;3884;48.616;12.872;2023-04-10T00:56:52;2.90;99.90
7684;DHT22;3884;48.616;12.872;2023-04-10T00:59:19;3.00;99.90
7684;DHT22;3884;48.616;12.872;2023-04-10T01:01:46;2.90;1.00
7684;DHT22;3884;48.616;12.872;2023-04-10T01:04:13;2.90;99.90
7684;DHT22;3884;48.616;12.872;2023-04-10T01:06:51;2.90;1.00
7684;DHT22;3884;48.616;12.872;2023-04-10T01:09:34;2.80;1.00
7684;DHT22;3884;48.616;12.872;2023-04-10T01:12:10;2.50;16.40
7684;DHT22;3884;48.616;12.872;2023-04-10T01:14:48;2.30;1.00
7684;DHT22;3884;48.616;12.872;2023-04-10T01:17:21;2.50;99.90
7684;DHT22;3884;48.616;12.872;2023-04-10T01:19:58;2.20;99.90
7684;DHT22;3884;48.616;12.872;2023-04-10T01:22:33;2.20;99.90
7684;DHT22;3884;48.616;12.872;2023-04-10T01:25:18;2.40;1.00
7684;DHT22;3884;48.616;12.872;2023-04-10T01:28:04;2.40;1.00
7684;DHT22;3884;48.616;12.872;2023-04-10T01:30:36;2.50;1.00
7684;DHT22;3884;48.616;12.872;2023-04-10T01:33:08;2.40;1.00
7684;DHT22;3884;48.616;12.872;2023-04-10T01:35:38;2.30;1.00
7684;DHT22;3884;48.616;12.872;2023-04-10T01:38:08;1.90;99.90
7684;DHT22;3884;48.616;12.872;2023-04-10T01:40:38;1.90;1.00
7684;DHT22;3884;48.616;12.872;2023-04-10T01:43:09;1.90;99.90
7684;DHT22;3884;48.616;12.872;2023-04-10T01:45:50;1.90;99.90
7684;DHT22;3884;48.616;12.872;2023-04-10T01:48:17;1.60;56.20
7684;DHT22;3884;48.616;12.872;2023-04-10T01:50:46;1.80;1.00
7684;DHT22;3884;48.616;12.872;2023-04-10T01:53:13;1.80;1.00
7684;DHT22;3884;48.616;12.872;2023-04-10T01:55:41;1.80;1.00
7684;DHT22;3884;48.616;12.872;2023-04-10T01:58:10;1.80;92.80
7684;DHT22;3884;48.616;12.872;2023-04-10T02:00:38;1.80;99.90
7684;DHT22;3884;48.616;12.872;2023-04-10T02:03:08;1.70;10.20
7684;DHT22;3884;48.616;12.872;2023-04-10T02:05:42;1.70;99.90
7684;DHT22;3884;48.616;12.872;2023-04-10T02:08:17;1.70;1.00
7684;DHT22;3884;48.616;12.872;2023-04-10T02:10:51;1.60;1.00
7684;DHT22;3884;48.616;12.872;2023-04-10T02:13:21;1.60;99.90
7684;DHT22;3884;48.616;12.872;2023-04-10T02:15:50;1.60;1.00
7684;DHT22;3884;48.616;12.872;2023-04-10T02:18:21;1.70;1.00
7684;DHT22;3884;48.616;12.872;2023-04-10T02:20:48;1.70;1.00
7684;DHT22;3884;48.616;12.872;2023-04-10T02:23:16;1.70;1.00
7684;DHT22;3884;48.616;12.872;2023-04-10T02:25:44;1.60;1.00
7684;DHT22;3884;48.616;12.872;2023-04-10T02:28:11;1.70;1.00
7684;DHT22;3884;48.616;12.872;2023-04-10T02:30:38;1.70;1.00
7684;DHT22;3884;48.616;12.872;2023-04-10T02:33:05;1.60;1.00
7684;DHT22;3884;48.616;12.872;2023-04-10T02:35:33;1.60;1.00
7684;DHT22;3884;48.616;12.872;2023-04-10T02:38:02;1.60;1.00
7684;DHT22;3884;48.616;12.872;2023-04-10T02:40:30;1.50;1.00
7684;DHT22;3884;48.616;12.872;2023-04-10T02:43:09;1.30;1.00
7684;DHT22;3884;48.616;12.872;2023-04-10T02:45:36;1.40;1.00
7684;DHT22;3884;48.616;12.872;2023-04-10T02:48:04;1.50;1.00
7684;DHT22;3884;48.616;12.872;2023-04-10T02:50:31;1.50;1.00
7684;DHT22;3884;48.616;12.872;2023-04-10T02:53:00;1.60;1.00
7684;DHT22;3884;48.616;12.872;2023-04-10T02:55:27;1.60;1.00
7684;DHT22;3884;48.616;12.872;2023-04-10T02:57:54;1.60;1.00
7684;DHT22;3884;48.616;12.872;2023-04-10T03:00:22;1.60;1.00
7684;DHT22;3884;48.616;12.872;2023-04-10T03:03:08;1.50;1.00
7684;DHT22;3884;48.616;12.872;2023-04-10T03:05:42;1.40;79.60
7684;DHT22;3884;48.616;12.872;2023-04-10T03:08:13;1.40;99.90
7684;DHT22;3884;48.616;12.872;2023-04-10T03:10:41;1.60;99.90
7684;DHT22;3884;48.616;12.872;2023-04-10T03:13:09;1.60;99.90
7684;DHT22;3884;48.616;12.872;2023-04-10T03:15:36;1.30;99.90
7684;DHT22;3884;48.616;12.872;2023-04-10T03:18:03;1.40;99.90
7684;DHT22;3884;48.616;12.872;2023-04-10T03:20:30;1.60;99.90
7684;DHT22;3884;48.616;12.872;2023-04-10T03:22:57;1.70;99.90
7684;DHT22;3884;48.616;12.872;2023-04-10T03:25:27;1.70;99.90
7684;DHT22;3884;48.616;12.872;2023-04-10T03:27:54;1.50;99.90
7684;DHT22;3884;48.616;12.872;2023-04-10T03:30:22;1.60;99.90
7684;DHT22;3884;48.616;12.872;2023-04-10T03:32:49;1.60;99.90
7684;DHT22;3884;48.616;12.872;2023-04-10T03:35:16;1.70;99.90
7684;DHT22;3884;48.616;12.872;2023-04-10T03:37:43;1.70;99.90
7684;DHT22;3884;48.616;12.872;2023-04-10T03:40:10;1.60;99.90
7684;DHT22;3884;48.616;12.872;2023-04-10T03:42:39;1.70;99.90
7684;DHT22;3884;48.616;12.872;2023-04-10T03:45:07;1.70;99.90
7684;DHT22;3884;48.616;12.872;2023-04-10T03:47:34;1.70;99.90
7684;DHT22;3884;48.616;12.872;2023-04-10T03:50:04;1.70;99.90
7684;DHT22;3884;48.616;12.872;2023-04-10T03:52:39;1.60;99.90
7684;DHT22;3884;48.616;12.872;2023-04-10T03:55:09;1.20;99.90
7684;DHT22;3884;48.616;12.872;2023-04-10T03:57:36;1.20;99.90
7684;DHT22;3884;48.616;12.872;2023-04-10T04:00:06;1.30;99.90
7684;DHT22;3884;48.616;12.872;2023-04-10T04:02:45;1.50;99.90
7684;DHT22;3884;48.616;12.872;2023-04-10T04:05:19;1.60;99.90
7684;DHT22;3884;48.616;12.872;2023-04-10T04:08:06;1.60;99.90
7684;DHT22;3884;48.616;12.872;2023-04-10T04:10:53;1.40;99.90
7684;DHT22;3884;48.616;12.872;2023-04-10T04:13:26;1.30;99.90
7684;DHT22;3884;48.616;12.872;2023-04-10T04:16:10;1.20;99.90
7684;DHT22;3884;48.616;12.872;2023-04-10T04:18:48;1.00;99.90
7684;DHT22;3884;48.616;12.872;2023-04-10T04:21:19;0.90;99.90
7684;DHT22;3884;48.616;12.872;2023-04-10T04:24:00;0.90;99.90
7684;DHT22;3884;48.616;12.872;2023-04-10T04:26:49;0.90;99.90
7684;DHT22;3884;48.616;12.872;2023-04-10T04:29:34;0.90;99.90
7684;DHT22;3884;48.616;12.872;2023-04-10T04:32:31;0.70;99.90
7684;DHT22;3884;48.616;12.872;2023-04-10T04:35:11;0.80;99.90
7684;DHT22;3884;48.616;12.872;2023-04-10T04:37:57;1.00;99.90
7684;DHT22;3884;48.616;12.872;2023-04-10T04:40:55;1.00;99.90
7684;DHT22;3884;48.616;12.872;2023-04-10T04:43:41;1.00;99.90
7684;DHT22;3884;48.616;12.872;2023-04-10T04:46:34;1.00;99.90
7684;DHT22;3884;48.616;12.872;2023-04-10T04:49:38;1.00;99.90
7684;DHT22;3884;48.616;12.872;2023-04-10T04:52:32;1.10;97.00
7684;DHT22;3884;48.616;12.872;2023-04-10T04:55:06;1.10;31.00
7684;DHT22;3884;48.616;12.872;2023-04-10T04:57:52;1.00;1.00
7684;DHT22;3884;48.616;12.872;2023-04-10T05:00:29;1.00;1.00
7684;DHT22;3884;48.616;12.872;2023-04-10T05:02:59;0.80;2.30
7684;DHT22;3884;48.616;12.872;2023-04-10T05:05:57;0.90;43.00
7684;DHT22;3884;48.616;12.872;2023-04-10T05:08:42;0.90;74.00
7684;DHT22;3884;48.616;12.872;2023-04-10T05:11:41;1.00;99.90
7684;DHT22;3884;48.616;12.872;2023-04-10T05:14:16;0.90;99.90
7684;DHT22;3884;48.616;12.872;2023-04-10T05:16:58;0.90;99.90
7684;DHT22;3884;48.616;12.872;2023-04-10T05:19:40;0.90;99.90
7684;DHT22;3884;48.616;12.872;2023-04-10T05:22:35;1.00;99.90
7684;DHT22;3884;48.616;12.872;2023-04-10T05:25:20;1.20;99.90
7684;DHT22;3884;48.616;12.872;2023-04-10T05:28:16;1.20;78.90
7684;DHT22;3884;48.616;12.872;2023-04-10T05:30:56;1.20;1.90
7684;DHT22;3884;48.616;12.872;2023-04-10T05:33:46;1.20;3.40
7684;DHT22;3884;48.616;12.872;2023-04-10T05:36:39;1.30;10.90
7684;DHT22;3884;48.616;12.872;2023-04-10T05:39:37;1.20;3.10
7684;DHT22;3884;48.616;12.872;2023-04-10T05:42:22;1.20;43.50
7684;DHT22;3884;48.616;12.872;2023-04-10T05:44:54;1.30;91.40
7684;DHT22;3884;48.616;12.872;2023-04-10T05:47:50;1.40;99.90
7684;DHT22;3884;48.616;12.872;2023-04-10T05:50:27;1.50;99.90
7684;DHT22;3884;48.616;12.872;2023-04-10T05:53:20;1.50;99.90
7684;DHT22;3884;48.616;12.872;2023-04-10T05:56:12;1.60;99.90
7684;DHT22;3884;48.616;12.872;2023-04-10T05:58:44;1.60;99.90
7684;DHT22;3884;48.616;12.872;2023-04-10T06:01:23;1.90;99.90
7684;DHT22;3884;48.616;12.872;2023-04-10T06:03:59;2.00;99.90
7684;DHT22;3884;48.616;12.872;2023-04-10T06:06:27;2.10;99.90
7684;DHT22;3884;48.616;12.872;2023-04-10T06:08:55;2.30;99.90
7684;DHT22;3884;48.616;12.872;2023-04-10T06:11:24;2.40;99.90
7684;DHT22;3884;48.616;12.872;2023-04-10T06:13:53;2.60;99.90
7684;DHT22;3884;48.616;12.872;2023-04-10T06:16:27;2.70;99.90
7684;DHT22;3884;48.616;12.872;2023-04-10T06:18:54;2.80;99.90
7684;DHT22;3884;48.616;12.872;2023-04-10T06:21:21;3.00;99.90
7684;DHT22;3884;48.616;12.872;2023-04-10T06:23:47;3.10;99.90
7684;DHT22;3884;48.616;12.872;2023-04-10T06:26:14;3.10;99.90
7684;DHT22;3884;48.616;12.872;2023-04-10T06:28:42;3.30;99.90
7684;DHT22;3884;48.616;12.872;2023-04-10T06:31:12;3.50;99.90
7684;DHT22;3884;48.616;12.872;2023-04-10T06:33:40;3.60;99.90
7684;DHT22;3884;48.616;12.872;2023-04-10T06:36:09;3.80;99.90
7684;DHT22;3884;48.616;12.872;2023-04-10T06:38:45;4.00;99.90
7684;DHT22;3884;48.616;12.872;2023-04-10T06:41:12;4.20;99.90
7684;DHT22;3884;48.616;12.872;2023-04-10T06:43:39;4.40;99.90
7684;DHT22;3884;48.616;12.872;2023-04-10T06:46:07;4.60;99.90
7684;DHT22;3884;48.616;12.872;2023-04-10T06:48:34;4.80;99.90
7684;DHT22;3884;48.616;12.872;2023-04-10T06:51:01;4.90;99.90
7684;DHT22;3884;48.616;12.872;2023-04-10T06:53:28;5.10;99.90
7684;DHT22;3884;48.616;12.872;2023-04-10T06:55:55;5.50;99.90
7684;DHT22;3884;48.616;12.872;2023-04-10T06:58:22;5.60;99.90
7684;DHT22;3884;48.616;12.872;2023-04-10T07:00:49;5.90;99.90
7684;DHT22;3884;48.616;12.872;2023-04-10T07:03:17;6.00;52.20
7684;DHT22;3884;48.616;12.872;2023-04-10T07:05:44;6.10;10.00
7684;DHT22;3884;48.616;12.872;2023-04-10T07:08:11;6.30;1.00
7684;DHT22;3884;48.616;12.872;2023-04-10T07:10:37;6.50;1.00
7684;DHT22;3884;48.616;12.872;2023-04-10T07:13:04;6.70;1.00
7684;DHT22;3884;48.616;12.872;2023-04-10T07:15:31;7.00;1.00
7684;DHT22;3884;48.616;12.872;2023-04-10T07:17:58;7.20;99.90
7684;DHT22;3884;48.616;12.872;2023-04-10T07:20:26;7.30;99.90
7684;DHT22;3884;48.616;12.872;2023-04-10T07:22:53;7.50;99.90
7684;DHT22;3884;48.616;12.872;2023-04-10T07:25:20;7.80;1.00
7684;DHT22;3884;48.616;12.872;2023-04-10T07:27:47;8.00;1.00
7684;DHT22;3884;48.616;12.872;2023-04-10T07:30:13;8.10;1.00
7684;DHT22;3884;48.616;12.872;2023-04-10T07:32:40;8.20;1.00
7684;DHT22;3884;48.616;12.872;2023-04-10T07:35:08;8.30;1.00
7684;DHT22;3884;48.616;12.872;2023-04-10T07:37:36;8.50;1.00
7684;DHT22;3884;48.616;12.872;2023-04-10T07:40:05;8.70;1.00
7684;DHT22;3884;48.616;12.872;2023-04-10T07:42:32;8.70;29.10
7684;DHT22;3884;48.616;12.872;2023-04-10T07:44:59;8.90;1.00
7684;DHT22;3884;48.616;12.872;2023-04-10T07:47:26;8.80;99.90
7684;DHT22;3884;48.616;12.872;2023-04-10T07:49:52;8.90;1.00
7684;DHT22;3884;48.616;12.872;2023-04-10T07:52:19;8.70;99.90
7684;DHT22;3884;48.616;12.872;2023-04-10T07:54:47;9.00;1.00
7684;DHT22;3884;48.616;12.872;2023-04-10T07:57:14;9.30;1.00
7684;DHT22;3884;48.616;12.872;2023-04-10T07:59:42;9.30;1.00
7684;DHT22;3884;48.616;12.872;2023-04-10T08:02:08;9.30;1.00
7684;DHT22;3884;48.616;12.872;2023-04-10T08:04:36;9.50;1.00
7684;DHT22;3884;48.616;12.872;2023-04-10T08:07:02;9.60;1.00
7684;DHT22;3884;48.616;12.872;2023-04-10T08:09:29;9.20;1.00
7684;DHT22;3884;48.616;12.872;2023-04-10T08:11:57;9.40;1.00
7684;DHT22;3884;48.616;12.872;2023-04-10T08:14:24;9.60;99.90
7684;DHT22;3884;48.616;12.872;2023-04-10T08:16:51;9.80;99.90
7684;DHT22;3884;48.616;12.872;2023-04-10T08:19:18;10.00;99.90
7684;DHT22;3884;48.616;12.872;2023-04-10T08:21:45;9.90;99.90
7684;DHT22;3884;48.616;12.872;2023-04-10T08:24:12;9.80;29.10
7684;DHT22;3884;48.616;12.872;2023-04-10T08:26:39;10.10;99.90
7684;DHT22;3884;48.616;12.872;2023-04-10T08:29:07;10.50;1.00
7684;DHT22;3884;48.616;12.872;2023-04-10T08:31:34;10.50;1.00
7684;DHT22;3884;48.616;12.872;2023-04-10T08:34:01;10.20;1.00
7684;DHT22;3884;48.616;12.872;2023-04-10T08:36:28;10.40;1.00
7684;DHT22;3884;48.616;12.872;2023-04-10T08:38:56;10.50;1.00
7684;DHT22;3884;48.616;12.872;2023-04-10T08:41:22;10.50;1.00
7684;DHT22;3884;48.616;12.872;2023-04-10T08:43:49;10.30;1.00
7684;DHT22;3884;48.616;12.872;2023-04-10T08:46:18;10.40;1.00
7684;DHT22;3884;48.616;12.872;2023-04-10T08:48:46;10.70;1.00
7684;DHT22;3884;48.616;12.872;2023-04-10T08:51:22;10.80;1.00
7684;DHT22;3884;48.616;12.872;2023-04-10T08:53:51;10.70;99.90
7684;DHT22;3884;48.616;12.872;2023-04-10T08:56:19;10.50;1.00
7684;DHT22;3884;48.616;12.872;2023-04-10T08:58:48;10.10;1.00
7684;DHT22;3884;48.616;12.872;2023-04-10T09:01:35;10.50;1.00
7684;DHT22;3884;48.616;12.872;2023-04-10T09:04:03;10.80;1.00
7684;DHT22;3884;48.616;12.872;2023-04-10T09:06:30;11.20;99.90
7684;DHT22;3884;48.616;12.872;2023-04-10T09:08:57;11.30;99.90
7684;DHT22;3884;48.616;12.872;2023-04-10T09:11:54;11.30;99.90
7684;DHT22;3884;48.616;12.872;2023-04-10T09:14:26;11.30;99.90
7684;DHT22;3884;48.616;12.872;2023-04-10T09:17:12;11.60;99.90
7684;DHT22;3884;48.616;12.872;2023-04-10T09:19:39;11.70;99.90
7684;DHT22;3884;48.616;12.872;2023-04-10T09:22:06;11.50;99.90
7684;DHT22;3884;48.616;12.872;2023-04-10T09:24:35;11.30;99.90
7684;DHT22;3884;48.616;12.872;2023-04-10T09:27:03;11.70;99.90
7684;DHT22;3884;48.616;12.872;2023-04-10T09:29:41;11.60;99.90
7684;DHT22;3884;48.616;12.872;2023-04-10T09:32:10;11.80;99.90
7684;DHT22;3884;48.616;12.872;2023-04-10T09:34:53;11.50;99.40
7684;DHT22;3884;48.616;12.872;2023-04-10T09:37:30;11.60;99.90
7684;DHT22;3884;48.616;12.872;2023-04-10T09:39:57;11.60;99.90
7684;DHT22;3884;48.616;12.872;2023-04-10T09:42:29;11.70;99.90
7684;DHT22;3884;48.616;12.872;2023-04-10T09:44:57;11.80;84.90
7684;DHT22;3884;48.616;12.872;2023-04-10T09:47:25;12.20;28.30
7684;DHT22;3884;48.616;12.872;2023-04-10T09:49:54;12.40;1.00
7684;DHT22;3884;48.616;12.872;2023-04-10T09:52:22;12.30;1.00
7684;DHT22;3884;48.616;12.872;2023-04-10T09:54:54;12.40;1.00
7684;DHT22;3884;48.616;12.872;2023-04-10T09:57:23;12.50;1.00
7684;DHT22;3884;48.616;12.872;2023-04-10T09:59:51;12.40;1.00
7684;DHT22;3884;48.616;12.872;2023-04-10T10:02:19;12.20;1.00
7684;DHT22;3884;48.616;12.872;2023-04-10T10:04:48;12.50;1.00
7684;DHT22;3884;48.616;12.872;2023-04-10T10:07:16;11.70;1.00
7684;DHT22;3884;48.616;12.872;2023-04-10T10:09:45;11.60;1.00
7684;DHT22;3884;48.616;12.872;2023-04-10T10:12:14;11.90;1.00
7684;DHT22;3884;48.616;12.872;2023-04-10T10:14:50;11.80;1.00
7684;DHT22;3884;48.616;12.872;2023-04-10T10:17:20;11.80;1.00
7684;DHT22;3884;48.616;12.872;2023-04-10T10:19:56;12.20;6.10
7684;DHT22;3884;48.616;12.872;2023-04-10T10:22:27;12.20;1.00
7684;DHT22;3884;48.616;12.872;2023-04-10T10:24:55;12.20;1.00
7684;DHT22;3884;48.616;12.872;2023-04-10T10:27:25;12.50;1.00
7684;DHT22;3884;48.616;12.872;2023-04-10T10:29:53;12.50;1.00
7684;DHT22;3884;48.616;12.872;2023-04-10T10:32:20;12.60;1.00
7684;DHT22;3884;48.616;12.872;2023-04-10T10:34:51;12.50;1.00
7684;DHT22;3884;48.616;12.872;2023-04-10T10:37:18;12.50;1.00
7684;DHT22;3884;48.616;12.872;2023-04-10T10:39:53;12.80;1.00
7684;DHT22;3884;48.616;12.872;2023-04-10T10:42:28;12.40;1.00
7684;DHT22;3884;48.616;12.872;2023-04-10T10:45:08;12.50;1.00
7684;DHT22;3884;48.616;12.872;2023-04-10T10:47:41;12.70;1.00
7684;DHT22;3884;48.616;12.872;2023-04-10T10:50:11;12.40;1.00
7684;DHT22;3884;48.616;12.872;2023-04-10T10:52:45;12.50;1.00
7684;DHT22;3884;48.616;12.872;2023-04-10T10:55:32;12.40;1.00
7684;DHT22;3884;48.616;12.872;2023-04-10T10:58:02;12.40;1.00
7684;DHT22;3884;48.616;12.872;2023-04-10T11:03:43;12.70;1.00
7684;DHT22;3884;48.616;12.872;2023-04-10T11:06:13;12.80;1.00
7684;DHT22;3884;48.616;12.872;2023-04-10T11:08:45;12.40;1.00
7684;DHT22;3884;48.616;12.872;2023-04-10T11:11:16;12.50;1.00
7684;DHT22;3884;48.616;12.872;2023-04-10T11:14:12;12.80;1.00
7684;DHT22;3884;48.616;12.872;2023-04-10T11:16:46;12.70;1.00
7684;DHT22;3884;48.616;12.872;2023-04-10T11:19:13;12.60;1.00
7684;DHT22;3884;48.616;12.872;2023-04-10T11:22:09;12.70;1.00
7684;DHT22;3884;48.616;12.872;2023-04-10T11:24:54;12.80;1.00
7684;DHT22;3884;48.616;12.872;2023-04-10T11:27:41;13.00;1.00
7684;DHT22;3884;48.616;12.872;2023-04-10T11:30:31;12.80;1.00
7684;DHT22;3884;48.616;12.872;2023-04-10T11:32:59;12.90;1.00
7684;DHT22;3884;48.616;12.872;2023-04-10T11:35:26;13.10;1.00
7684;DHT22;3884;48.616;12.872;2023-04-10T11:38:10;13.10;1.00
7684;DHT22;3884;48.616;12.872;2023-04-10T11:40:56;13.10;1.00
7684;DHT22;3884;48.616;12.872;2023-04-10T11:43:23;13.10;1.00
7684;DHT22;3884;48.616;12.872;2023-04-10T11:45:50;13.20;99.90
7684;DHT22;3884;48.616;12.872;2023-04-10T11:48:24;13.10;99.90
7684;DHT22;3884;48.616;12.872;2023-04-10T11:50:51;13.20;99.90
7684;DHT22;3884;48.616;12.872;2023-04-10T11:53:20;13.30;99.90
7684;DHT22;3884;48.616;12.872;2023-04-10T11:55:47;13.10;99.90
7684;DHT22;3884;48.616;12.872;2023-04-10T11:58:24;13.20;99.90
7684;DHT22;3884;48.616;12.872;2023-04-10T12:00:58;13.40;99.90
7684;DHT22;3884;48.616;12.872;2023-04-10T12:03:38;13.70;99.90
7684;DHT22;3884;48.616;12.872;2023-04-10T12:06:07;13.70;99.90
7684;DHT22;3884;48.616;12.872;2023-04-10T12:08:37;13.40;1.00
7684;DHT22;3884;48.616;12.872;2023-04-10T12:11:06;13.30;1.00
7684;DHT22;3884;48.616;12.872;2023-04-10T12:13:33;13.40;1.00
7684;DHT22;3884;48.616;12.872;2023-04-10T12:16:01;13.40;1.00
7684;DHT22;3884;48.616;12.872;2023-04-10T12:18:29;13.30;1.00
7684;DHT22;3884;48.616;12.872;2023-04-10T12:20:56;13.10;1.00
7684;DHT22;3884;48.616;12.872;2023-04-10T12:23:24;13.10;1.00
7684;DHT22;3884;48.616;12.872;2023-04-10T12:26:04;13.30;99.90
7684;DHT22;3884;48.616;12.872;2023-04-10T12:28:32;13.20;99.90
7684;DHT22;3884;48.616;12.872;2023-04-10T12:30:59;13.30;99.90
7684;DHT22;3884;48.616;12.872;2023-04-10T12:33:28;13.50;1.00
7684;DHT22;3884;48.616;12.872;2023-04-10T12:35:55;13.50;99.90
7684;DHT22;3884;48.616;12.872;2023-04-10T12:38:36;13.60;1.00
7684;DHT22;3884;48.616;12.872;2023-04-10T12:41:06;13.50;1.00
7684;DHT22;3884;48.616;12.872;2023-04-10T12:43:35;13.50;1.00
7684;DHT22;3884;48.616;12.872;2023-04-10T12:46:02;13.50;1.00
7684;DHT22;3884;48.616;12.872;2023-04-10T12:48:29;13.50;1.00
7684;DHT22;3884;48.616;12.872;2023-04-10T12:50:56;13.60;1.00
7684;DHT22;3884;48.616;12.872;2023-04-10T12:53:23;13.70;99.90
7684;DHT22;3884;48.616;12.872;2023-04-10T12:56:02;13.50;99.90
7684;DHT22;3884;48.616;12.872;2023-04-10T12:58:31;13.40;99.90
7684;DHT22;3884;48.616;12.872;2023-04-10T13:01:01;13.60;99.90
7684;DHT22;3884;48.616;12.872;2023-04-10T13:03:29;13.70;99.90
7684;DHT22;3884;48.616;12.872;2023-04-10T13:05:56;13.60;99.90
7684;DHT22;3884;48.616;12.872;2023-04-10T13:08:23;13.60;99.90
7684;DHT22;3884;48.616;12.872;2023-04-10T13:10:50;13.90;99.90
7684;DHT22;3884;48.616;12.872;2023-04-10T13:13:17;13.90;99.90
7684;DHT22;3884;48.616;12.872;2023-04-10T13:15:45;13.80;99.90
7684;DHT22;3884;48.616;12.872;2023-04-10T13:18:12;13.90;99.90
7684;DHT22;3884;48.616;12.872;2023-04-10T13:20:39;14.10;99.90
7684;DHT22;3884;48.616;12.872;2023-04-10T13:23:07;14.10;99.90
7684;DHT22;3884;48.616;12.872;2023-04-10T13:25:36;14.20;99.90
7684;DHT22;3884;48.616;12.872;2023-04-10T13:28:04;14.50;99.90
7684;DHT22;3884;48.616;12.872;2023-04-10T13:30:36;14.40;99.90
7684;DHT22;3884;48.616;12.872;2023-04-10T13:33:04;14.20;99.90
7684;DHT22;3884;48.616;12.872;2023-04-10T13:35:31;14.10;99.90
7684;DHT22;3884;48.616;12.872;2023-04-10T13:37:59;14.10;99.90
7684;DHT22;3884;48.616;12.872;2023-04-10T13:40:26;14.00;99.90
7684;DHT22;3884;48.616;12.872;2023-04-10T13:42:53;14.00;99.90
7684;DHT22;3884;48.616;12.872;2023-04-10T13:45:20;14.50;99.90
7684;DHT22;3884;48.616;12.872;2023-04-10T13:47:47;14.50;99.90
7684;DHT22;3884;48.616;12.872;2023-04-10T13:50:16;14.60;99.90
7684;DHT22;3884;48.616;12.872;2023-04-10T13:52:42;14.60;99.90
7684;DHT22;3884;48.616;12.872;2023-04-10T13:55:09;15.00;99.90
7684;DHT22;3884;48.616;12.872;2023-04-10T13:57:37;14.90;99.90
7684;DHT22;3884;48.616;12.872;2023-04-10T14:00:05;14.90;99.90
7684;DHT22;3884;48.616;12.872;2023-04-10T14:02:38;15.30;99.90
7684;DHT22;3884;48.616;12.872;2023-04-10T14:05:05;15.10;99.90
7684;DHT22;3884;48.616;12.872;2023-04-10T14:07:34;15.00;99.90
7684;DHT22;3884;48.616;12.872;2023-04-10T14:10:01;15.30;99.90
7684;DHT22;3884;48.616;12.872;2023-04-10T14:12:28;15.30;99.90
7684;DHT22;3884;48.616;12.872;2023-04-10T14:14:55;15.40;99.90
7684;DHT22;3884;48.616;12.872;2023-04-10T14:17:22;15.40;99.90
7684;DHT22;3884;48.616;12.872;2023-04-10T14:19:49;15.10;99.90
7684;DHT22;3884;48.616;12.872;2023-04-10T14:22:18;15.00;99.90
7684;DHT22;3884;48.616;12.872;2023-04-10T14:24:46;15.00;99.90
7684;DHT22;3884;48.616;12.872;2023-04-10T14:27:13;14.60;99.90
7684;DHT22;3884;48.616;12.872;2023-04-10T14:29:40;14.80;99.90
7684;DHT22;3884;48.616;12.872;2023-04-10T14:32:07;14.30;99.90
7684;DHT22;3884;48.616;12.872;2023-04-10T14:34:37;14.80;99.90
7684;DHT22;3884;48.616;12.872;2023-04-10T14:37:04;15.10;99.90
7684;DHT22;3884;48.616;12.872;2023-04-10T14:39:31;15.50;99.90
7684;DHT22;3884;48.616;12.872;2023-04-10T14:42:00;15.30;99.90
7684;DHT22;3884;48.616;12.872;2023-04-10T14:44:28;15.30;99.90
7684;DHT22;3884;48.616;12.872;2023-04-10T14:46:55;14.90;99.90
7684;DHT22;3884;48.616;12.872;2023-04-10T14:49:30;14.00;99.90
7684;DHT22;3884;48.616;12.872;2023-04-10T14:51:57;14.50;1.00
7684;DHT22;3884;48.616;12.872;2023-04-10T14:54:24;14.70;99.90
7684;DHT22;3884;48.616;12.872;2023-04-10T14:56:51;14.60;99.90
7684;DHT22;3884;48.616;12.872;2023-04-10T14:59:19;14.70;99.90
7684;DHT22;3884;48.616;12.872;2023-04-10T15:01:46;14.70;99.90
7684;DHT22;3884;48.616;12.872;2023-04-10T15:04:13;14.30;99.90
7684;DHT22;3884;48.616;12.872;2023-04-10T15:06:40;14.20;99.90
7684;DHT22;3884;48.616;12.872;2023-04-10T15:09:06;14.20;99.90
7684;DHT22;3884;48.616;12.872;2023-04-10T15:11:33;14.00;99.90
7684;DHT22;3884;48.616;12.872;2023-04-10T15:14:00;14.80;1.00
7684;DHT22;3884;48.616;12.872;2023-04-10T15:16:29;15.10;1.00
7684;DHT22;3884;48.616;12.872;2023-04-10T15:18:55;15.10;1.00
7684;DHT22;3884;48.616;12.872;2023-04-10T15:21:22;15.30;1.00
7684;DHT22;3884;48.616;12.872;2023-04-10T15:23:49;14.60;1.00
7684;DHT22;3884;48.616;12.872;2023-04-10T15:26:16;14.40;1.00
7684;DHT22;3884;48.616;12.872;2023-04-10T15:28:43;14.40;1.00
7684;DHT22;3884;48.616;12.872;2023-04-10T15:31:10;14.40;1.00
7684;DHT22;3884;48.616;12.872;2023-04-10T15:33:38;13.90;1.00
7684;DHT22;3884;48.616;12.872;2023-04-10T15:36:06;13.90;1.00
7684;DHT22;3884;48.616;12.872;2023-04-10T15:38:34;14.30;1.00
7684;DHT22;3884;48.616;12.872;2023-04-10T15:41:06;14.40;1.00
7684;DHT22;3884;48.616;12.872;2023-04-10T15:43:33;14.00;1.00
7684;DHT22;3884;48.616;12.872;2023-04-10T15:46:00;13.70;1.00
7684;DHT22;3884;48.616;12.872;2023-04-10T15:48:27;14.10;1.00
7684;DHT22;3884;48.616;12.872;2023-04-10T15:50:55;14.10;1.00
7684;DHT22;3884;48.616;12.872;2023-04-10T15:53:22;13.60;1.00
7684;DHT22;3884;48.616;12.872;2023-04-10T15:55:49;13.80;1.00
7684;DHT22;3884;48.616;12.872;2023-04-10T15:58:16;13.70;1.00
7684;DHT22;3884;48.616;12.872;2023-04-10T16:00:43;13.50;1.00
7684;DHT22;3884;48.616;12.872;2023-04-10T16:03:10;13.40;1.00
7684;DHT22;3884;48.616;12.872;2023-04-10T16:05:37;13.80;99.90
7684;DHT22;3884;48.616;12.872;2023-04-10T16:08:05;13.70;1.00
7684;DHT22;3884;48.616;12.872;2023-04-10T16:10:32;13.60;1.00
7684;DHT22;3884;48.616;12.872;2023-04-10T16:13:00;13.40;1.00
7684;DHT22;3884;48.616;12.872;2023-04-10T16:15:29;13.20;1.00
7684;DHT22;3884;48.616;12.872;2023-04-10T16:17:56;13.60;1.00
7684;DHT22;3884;48.616;12.872;2023-04-10T16:20:23;14.20;1.00
7684;DHT22;3884;48.616;12.872;2023-04-10T16:22:50;13.80;1.00
7684;DHT22;3884;48.616;12.872;2023-04-10T16:25:20;13.90;1.00
7684;DHT22;3884;48.616;12.872;2023-04-10T16:27:48;13.90;1.00
7684;DHT22;3884;48.616;12.872;2023-04-10T16:30:15;14.20;1.00